createdAt,value
2018-05-09T00:00:45.204Z,16.15
2018-05-09T00:01:45.770Z,16.15
2018-05-09T00:02:46.334Z,16.16
2018-05-09T00:03:46.881Z,16.13
2018-05-09T00:04:47.428Z,16.23
2018-05-09T00:05:47.981Z,16.17
2018-05-09T00:06:48.534Z,16.12
2018-05-09T00:07:49.082Z,16.12
2018-05-09T00:08:49.632Z,16.04
2018-05-09T00:09:50.184Z,16.01
2018-05-09T00:10:50.727Z,15.99
2018-05-09T00:11:51.330Z,15.86
2018-05-09T00:12:51.828Z,15.76
2018-05-09T00:13:52.376Z,15.77
2018-05-09T00:14:52.927Z,15.69
2018-05-09T00:15:53.477Z,15.65
2018-05-09T00:16:54.025Z,15.62
2018-05-09T00:17:54.573Z,15.59
2018-05-09T00:18:55.120Z,15.44
2018-05-09T00:19:55.673Z,15.46
2018-05-09T00:20:56.219Z,15.34
2018-05-09T00:21:56.766Z,15.42
2018-05-09T00:22:57.321Z,15.37
2018-05-09T00:23:57.869Z,15.28
2018-05-09T00:24:58.415Z,15.28
2018-05-09T00:25:58.961Z,15.34
2018-05-09T00:26:59.511Z,15.31
2018-05-09T00:28:00.055Z,15.43
2018-05-09T00:29:00.608Z,15.40
2018-05-09T00:30:01.159Z,15.29
2018-05-09T00:31:01.709Z,15.26
2018-05-09T00:32:02.260Z,15.11
2018-05-09T00:33:02.805Z,15.26
2018-05-09T00:34:03.353Z,15.26
2018-05-09T00:35:03.908Z,15.13
2018-05-09T00:36:04.455Z,15.31
2018-05-09T00:37:05.004Z,15.28
2018-05-09T00:38:05.555Z,15.19
2018-05-09T00:39:06.102Z,15.25
2018-05-09T00:40:06.656Z,15.17
2018-05-09T00:41:07.203Z,15.29
2018-05-09T00:42:07.750Z,15.21
2018-05-09T00:43:08.300Z,15.14
2018-05-09T00:44:08.851Z,15.14
2018-05-09T00:45:09.401Z,15.07
2018-05-09T00:46:09.950Z,15.09
2018-05-09T00:47:10.494Z,15.07
2018-05-09T00:48:11.042Z,15.09
2018-05-09T00:49:11.587Z,15.03
2018-05-09T00:50:12.227Z,15.06
2018-05-09T00:51:12.686Z,15.10
2018-05-09T00:52:13.235Z,15.06
2018-05-09T00:53:13.776Z,15.01
2018-05-09T00:54:14.326Z,15.00
2018-05-09T00:55:14.868Z,14.99
2018-05-09T00:56:15.432Z,15.00
2018-05-09T00:57:15.964Z,14.99
2018-05-09T00:58:16.513Z,14.96
2018-05-09T00:59:17.063Z,14.94
2018-05-09T01:00:17.614Z,14.89
2018-05-09T01:01:18.161Z,14.89
2018-05-09T01:02:18.712Z,14.89
2018-05-09T01:03:19.252Z,14.94
2018-05-09T01:04:19.800Z,14.94
2018-05-09T01:05:20.350Z,14.88
2018-05-09T01:06:20.899Z,14.96
2018-05-09T01:07:21.449Z,14.89
2018-05-09T01:08:21.998Z,14.82
2018-05-09T01:09:22.552Z,14.84
2018-05-09T01:10:23.104Z,14.85
2018-05-09T01:11:23.648Z,14.69
2018-05-09T01:12:24.196Z,14.75
2018-05-09T01:13:24.744Z,14.72
2018-05-09T01:14:25.290Z,14.72
2018-05-09T01:15:25.839Z,14.77
2018-05-09T01:16:26.392Z,14.68
2018-05-09T01:17:26.940Z,14.62
2018-05-09T01:18:27.484Z,14.60
2018-05-09T01:19:28.034Z,14.62
2018-05-09T01:20:28.589Z,14.63
2018-05-09T01:21:29.133Z,14.66
2018-05-09T01:22:29.684Z,14.63
2018-05-09T01:23:30.235Z,14.68
2018-05-09T01:24:30.784Z,14.63
2018-05-09T01:25:31.332Z,14.60
2018-05-09T01:26:31.878Z,14.65
2018-05-09T01:27:32.430Z,14.65
2018-05-09T01:28:32.983Z,14.63
2018-05-09T01:29:33.535Z,14.62
2018-05-09T01:30:34.080Z,14.60
2018-05-09T01:31:34.631Z,14.52
2018-05-09T01:32:35.179Z,14.55
2018-05-09T01:33:35.725Z,14.54
2018-05-09T01:34:36.277Z,14.52
2018-05-09T01:35:36.829Z,14.44
2018-05-09T01:36:37.382Z,14.44
2018-05-09T01:37:37.934Z,14.44
2018-05-09T01:38:38.490Z,14.33
2018-05-09T01:39:39.051Z,14.35
2018-05-09T01:40:39.590Z,14.32
2018-05-09T01:41:40.141Z,14.26
2018-05-09T01:42:40.696Z,14.12
2018-05-09T01:43:41.242Z,14.26
2018-05-09T01:44:41.794Z,14.17
2018-05-09T01:45:42.333Z,14.14
2018-05-09T01:46:42.888Z,14.17
2018-05-09T01:47:43.436Z,14.19
2018-05-09T01:48:43.986Z,14.17
2018-05-09T01:49:44.613Z,14.21
2018-05-09T01:50:45.142Z,14.15
2018-05-09T01:51:45.687Z,14.08
2018-05-09T01:52:46.233Z,14.17
2018-05-09T01:53:46.787Z,14.14
2018-05-09T01:54:47.331Z,14.08
2018-05-09T01:55:47.891Z,14.11
2018-05-09T01:56:48.436Z,14.15
2018-05-09T01:57:48.979Z,14.11
2018-05-09T01:58:49.529Z,14.05
2018-05-09T01:59:50.080Z,14.10
2018-05-09T02:00:50.628Z,14.08
2018-05-09T02:01:51.179Z,14.10
2018-05-09T02:02:51.733Z,14.02
2018-05-09T02:03:52.270Z,13.99
2018-05-09T02:04:52.817Z,14.07
2018-05-09T02:05:53.366Z,13.96
2018-05-09T02:06:53.915Z,13.93
2018-05-09T02:07:54.462Z,13.92
2018-05-09T02:08:55.012Z,13.90
2018-05-09T02:09:55.556Z,13.84
2018-05-09T02:10:56.104Z,13.92
2018-05-09T02:11:56.654Z,13.78
2018-05-09T02:12:57.203Z,13.84
2018-05-09T02:13:57.755Z,13.92
2018-05-09T02:14:58.304Z,13.87
2018-05-09T02:15:58.849Z,13.79
2018-05-09T02:16:59.402Z,13.81
2018-05-09T02:17:59.947Z,13.81
2018-05-09T02:19:00.498Z,13.82
2018-05-09T02:20:01.049Z,13.82
2018-05-09T02:21:01.593Z,13.75
2018-05-09T02:22:02.142Z,13.82
2018-05-09T02:23:02.686Z,13.77
2018-05-09T02:24:03.238Z,13.71
2018-05-09T02:25:03.785Z,13.74
2018-05-09T02:26:04.334Z,13.77
2018-05-09T02:27:04.876Z,13.68
2018-05-09T02:28:05.423Z,13.57
2018-05-09T02:29:05.967Z,13.54
2018-05-09T02:30:06.517Z,13.39
2018-05-09T02:31:07.105Z,13.36
2018-05-09T02:32:07.612Z,13.35
2018-05-09T02:33:08.163Z,13.27
2018-05-09T02:34:08.709Z,13.25
2018-05-09T02:35:09.262Z,13.22
2018-05-09T02:36:09.806Z,13.23
2018-05-09T02:37:10.357Z,13.23
2018-05-09T02:38:10.908Z,13.19
2018-05-09T02:39:11.457Z,13.12
2018-05-09T02:40:12.009Z,13.15
2018-05-09T02:41:12.562Z,13.13
2018-05-09T02:42:13.113Z,13.12
2018-05-09T02:43:13.661Z,13.22
2018-05-09T02:44:14.204Z,13.18
2018-05-09T02:45:14.755Z,13.04
2018-05-09T02:46:15.352Z,13.02
2018-05-09T02:47:15.909Z,12.97
2018-05-09T02:48:16.450Z,13.00
2018-05-09T02:49:17.005Z,12.93
2018-05-09T02:50:17.554Z,12.98
2018-05-09T02:51:18.102Z,12.95
2018-05-09T02:52:18.707Z,12.95
2018-05-09T02:53:19.252Z,12.97
2018-05-09T02:54:19.800Z,12.94
2018-05-09T02:55:20.349Z,12.97
2018-05-09T02:56:20.895Z,12.90
2018-05-09T02:57:21.439Z,12.94
2018-05-09T02:58:21.987Z,12.87
2018-05-09T02:59:22.536Z,12.90
2018-05-09T03:00:23.081Z,12.87
2018-05-09T03:01:23.628Z,12.86
2018-05-09T03:02:24.173Z,12.87
2018-05-09T03:03:24.721Z,12.90
2018-05-09T03:04:25.269Z,12.90
2018-05-09T03:05:25.819Z,12.90
2018-05-09T03:06:26.368Z,12.87
2018-05-09T03:07:26.926Z,12.85
2018-05-09T03:08:27.470Z,12.87
2018-05-09T03:09:28.008Z,12.76
2018-05-09T03:10:28.560Z,12.72
2018-05-09T03:11:29.109Z,12.83
2018-05-09T03:12:29.652Z,12.71
2018-05-09T03:13:30.199Z,12.83
2018-05-09T03:14:30.749Z,12.87
2018-05-09T03:15:31.292Z,12.95
2018-05-09T03:16:31.842Z,12.98
2018-05-09T03:17:32.387Z,12.93
2018-05-09T03:18:32.936Z,13.00
2018-05-09T03:19:33.487Z,13.00
2018-05-09T03:20:34.034Z,13.02
2018-05-09T03:21:34.581Z,13.02
2018-05-09T03:22:35.127Z,13.00
2018-05-09T03:23:35.671Z,13.07
2018-05-09T03:24:36.220Z,13.13
2018-05-09T03:25:36.764Z,13.15
2018-05-09T03:26:37.314Z,13.16
2018-05-09T03:27:37.859Z,13.19
2018-05-09T03:28:38.403Z,13.19
2018-05-09T03:29:38.965Z,13.08
2018-05-09T03:30:39.495Z,13.13
2018-05-09T03:31:40.050Z,13.18
2018-05-09T03:32:40.594Z,13.13
2018-05-09T03:33:41.139Z,13.04
2018-05-09T03:34:41.688Z,12.97
2018-05-09T03:35:42.239Z,12.95
2018-05-09T03:36:42.792Z,12.93
2018-05-09T03:37:43.334Z,13.00
2018-05-09T03:38:43.883Z,13.01
2018-05-09T03:39:44.431Z,13.01
2018-05-09T03:40:44.978Z,12.87
2018-05-09T03:41:45.523Z,12.79
2018-05-09T03:42:46.071Z,12.80
2018-05-09T03:43:46.629Z,12.82
2018-05-09T03:44:47.176Z,12.86
2018-05-09T03:45:47.725Z,12.83
2018-05-09T03:46:48.270Z,12.85
2018-05-09T03:47:48.818Z,12.89
2018-05-09T03:48:49.369Z,12.86
2018-05-09T03:49:49.917Z,12.82
2018-05-09T03:50:50.462Z,12.90
2018-05-09T03:51:51.013Z,12.95
2018-05-09T03:52:51.560Z,12.94
2018-05-09T03:53:52.116Z,12.85
2018-05-09T03:54:52.667Z,12.83
2018-05-09T03:55:53.218Z,12.87
2018-05-09T03:56:53.771Z,12.71
2018-05-09T03:57:54.318Z,12.71
2018-05-09T03:58:54.871Z,12.68
2018-05-09T03:59:55.422Z,12.69
2018-05-09T04:00:55.972Z,12.75
2018-05-09T04:01:56.517Z,12.72
2018-05-09T04:02:57.072Z,12.76
2018-05-09T04:03:57.627Z,12.82
2018-05-09T04:04:58.175Z,12.72
2018-05-09T04:05:58.723Z,12.72
2018-05-09T04:06:59.285Z,12.69
2018-05-09T04:07:59.837Z,12.69
2018-05-09T04:09:00.387Z,12.71
2018-05-09T04:10:00.940Z,12.69
2018-05-09T04:11:01.488Z,12.67
2018-05-09T04:12:02.044Z,12.60
2018-05-09T04:13:02.597Z,12.71
2018-05-09T04:14:03.153Z,12.60
2018-05-09T04:15:03.704Z,12.53
2018-05-09T04:16:04.253Z,12.60
2018-05-09T04:17:04.807Z,12.64
2018-05-09T04:18:05.358Z,12.72
2018-05-09T04:19:05.909Z,12.68
2018-05-09T04:20:06.463Z,12.71
2018-05-09T04:21:07.012Z,12.79
2018-05-09T04:22:07.566Z,12.87
2018-05-09T04:23:08.119Z,12.85
2018-05-09T04:24:08.672Z,12.85
2018-05-09T04:25:09.221Z,12.94
2018-05-09T04:26:09.769Z,12.94
2018-05-09T04:27:10.324Z,12.98
2018-05-09T04:28:10.884Z,12.98
2018-05-09T04:29:11.433Z,13.05
2018-05-09T04:30:11.984Z,13.04
2018-05-09T04:31:12.532Z,13.04
2018-05-09T04:32:13.083Z,13.18
2018-05-09T04:33:13.633Z,13.07
2018-05-09T04:34:14.185Z,13.02
2018-05-09T04:35:14.742Z,13.18
2018-05-09T04:36:15.321Z,13.25
2018-05-09T04:37:15.864Z,13.33
2018-05-09T04:38:16.409Z,13.36
2018-05-09T04:39:16.957Z,13.41
2018-05-09T04:40:17.510Z,13.50
2018-05-09T04:41:18.066Z,13.72
2018-05-09T04:42:18.618Z,13.75
2018-05-09T04:43:19.174Z,13.93
2018-05-09T04:44:19.733Z,14.12
2018-05-09T04:45:20.287Z,14.57
2018-05-09T04:46:20.842Z,15.09
2018-05-09T04:47:21.396Z,15.62
2018-05-09T04:48:21.946Z,16.02
2018-05-09T04:49:22.507Z,16.31
2018-05-09T04:50:23.064Z,16.56
2018-05-09T04:51:23.616Z,16.66
2018-05-09T04:52:24.173Z,16.63
2018-05-09T04:53:24.733Z,16.82
2018-05-09T04:54:25.284Z,16.91
2018-05-09T04:55:25.861Z,17.01
2018-05-09T04:56:26.400Z,17.01
2018-05-09T04:57:26.950Z,17.11
2018-05-09T04:58:27.503Z,17.34
2018-05-09T04:59:28.057Z,17.70
2018-05-09T05:00:28.616Z,18.14
2018-05-09T05:01:29.174Z,18.53
2018-05-09T05:02:29.739Z,18.93
2018-05-09T05:03:30.293Z,19.16
2018-05-09T05:04:30.853Z,19.24
2018-05-09T05:05:31.413Z,19.27
2018-05-09T05:06:31.966Z,19.39
2018-05-09T05:07:32.535Z,19.27
2018-05-09T05:08:33.092Z,19.30
2018-05-09T05:09:33.651Z,19.40
2018-05-09T05:10:34.286Z,19.62
2018-05-09T05:11:34.771Z,19.85
2018-05-09T05:12:35.337Z,20.04
2018-05-09T05:13:35.897Z,20.29
2018-05-09T05:14:36.454Z,20.57
2018-05-09T05:15:37.024Z,20.96
2018-05-09T05:16:37.583Z,20.85
2018-05-09T05:17:38.146Z,20.80
2018-05-09T05:18:38.709Z,20.88
2018-05-09T05:19:39.267Z,20.98
2018-05-09T05:20:39.825Z,21.06
2018-05-09T05:21:40.391Z,20.90
2018-05-09T05:22:40.961Z,20.52
2018-05-09T05:23:41.522Z,20.19
2018-05-09T05:24:42.081Z,19.73
2018-05-09T05:25:42.648Z,19.51
2018-05-09T05:26:43.211Z,19.37
2018-05-09T05:27:43.771Z,19.47
2018-05-09T05:28:44.356Z,19.79
2018-05-09T05:29:44.916Z,19.94
2018-05-09T05:30:45.497Z,20.29
2018-05-09T05:31:46.053Z,20.57
2018-05-09T05:32:46.615Z,20.63
2018-05-09T05:33:47.178Z,20.69
2018-05-09T05:34:47.742Z,20.84
2018-05-09T05:35:48.307Z,20.59
2018-05-09T05:36:48.876Z,20.04
2018-05-09T05:37:49.440Z,19.71
2018-05-09T05:38:50.014Z,19.58
2018-05-09T05:39:50.568Z,19.81
2018-05-09T05:40:51.135Z,20.02
2018-05-09T05:41:51.701Z,20.47
2018-05-09T05:42:52.271Z,20.80
2018-05-09T05:43:52.836Z,20.80
2018-05-09T05:44:53.455Z,21.09
2018-05-09T05:45:53.971Z,21.25
2018-05-09T05:46:54.539Z,21.39
2018-05-09T05:47:55.105Z,21.17
2018-05-09T05:48:55.670Z,21.32
2018-05-09T05:49:56.235Z,20.98
2018-05-09T05:50:56.798Z,20.84
2018-05-09T05:51:57.367Z,20.95
2018-05-09T05:52:57.937Z,21.12
2018-05-09T05:53:58.504Z,21.33
2018-05-09T05:54:59.072Z,21.12
2018-05-09T05:55:59.677Z,21.21
2018-05-09T05:57:00.200Z,21.77
2018-05-09T05:58:00.774Z,22.28
2018-05-09T05:59:01.344Z,22.85
2018-05-09T06:00:01.920Z,23.28
2018-05-09T06:01:02.482Z,23.76
2018-05-09T06:02:03.050Z,24.09
2018-05-09T06:03:03.617Z,24.23
2018-05-09T06:04:04.189Z,24.61
2018-05-09T06:05:04.753Z,24.98
2018-05-09T06:06:05.328Z,25.18
2018-05-09T06:07:05.895Z,25.58
2018-05-09T06:08:06.475Z,25.73
2018-05-09T06:09:07.067Z,25.41
2018-05-09T06:10:07.639Z,25.26
2018-05-09T06:11:08.217Z,25.44
2018-05-09T06:12:08.775Z,25.65
2018-05-09T06:13:09.347Z,25.71
2018-05-09T06:14:09.915Z,25.87
2018-05-09T06:15:10.491Z,26.13
2018-05-09T06:16:11.059Z,26.25
2018-05-09T06:17:11.726Z,26.61
2018-05-09T06:18:12.216Z,26.88
2018-05-09T06:19:12.791Z,26.96
2018-05-09T06:20:13.369Z,26.68
2018-05-09T06:21:13.948Z,26.62
2018-05-09T06:22:14.513Z,26.99
2018-05-09T06:23:15.084Z,26.88
2018-05-09T06:24:15.752Z,27.02
2018-05-09T06:25:16.241Z,27.13
2018-05-09T06:26:16.814Z,27.13
2018-05-09T06:27:17.387Z,27.23
2018-05-09T06:28:17.961Z,27.33
2018-05-09T06:29:18.534Z,27.61
2018-05-09T06:30:19.100Z,27.95
2018-05-09T06:31:19.673Z,28.25
2018-05-09T06:32:20.241Z,28.13
2018-05-09T06:33:20.813Z,27.61
2018-05-09T06:34:21.387Z,27.77
2018-05-09T06:35:22.012Z,28.15
2018-05-09T06:36:22.532Z,28.23
2018-05-09T06:37:23.108Z,28.27
2018-05-09T06:38:23.686Z,28.27
2018-05-09T06:39:24.263Z,28.18
2018-05-09T06:40:24.828Z,28.30
2018-05-09T06:41:25.401Z,28.54
2018-05-09T06:42:25.980Z,28.78
2018-05-09T06:43:26.600Z,28.78
2018-05-09T06:44:27.148Z,29.15
2018-05-09T06:45:27.721Z,29.39
2018-05-09T06:46:28.293Z,29.52
2018-05-09T06:47:28.868Z,29.85
2018-05-09T06:48:29.447Z,30.08
2018-05-09T06:49:30.022Z,30.33
2018-05-09T06:50:30.590Z,30.50
2018-05-09T06:51:31.170Z,30.38
2018-05-09T06:52:31.745Z,30.47
2018-05-09T06:53:32.318Z,30.27
2018-05-09T06:54:32.897Z,29.94
2018-05-09T06:55:33.478Z,29.63
2018-05-09T06:56:34.047Z,29.63
2018-05-09T06:57:34.624Z,29.84
2018-05-09T06:58:35.197Z,30.08
2018-05-09T06:59:35.770Z,30.27
2018-05-09T07:00:36.348Z,30.31
2018-05-09T07:01:36.923Z,30.35
2018-05-09T07:02:37.491Z,30.49
2018-05-09T07:03:38.066Z,30.65
2018-05-09T07:04:38.643Z,30.72
2018-05-09T07:05:39.227Z,30.84
2018-05-09T07:06:40.175Z,30.87
2018-05-09T07:07:40.370Z,30.86
2018-05-09T07:08:40.943Z,30.88
2018-05-09T07:09:41.526Z,31.01
2018-05-09T07:10:42.098Z,31.03
2018-05-09T07:11:42.672Z,31.10
2018-05-09T07:12:43.349Z,31.06
2018-05-09T07:13:43.839Z,31.27
2018-05-09T07:14:44.419Z,31.28
2018-05-09T07:15:45.011Z,31.58
2018-05-09T07:16:45.595Z,31.54
2018-05-09T07:17:46.176Z,31.57
2018-05-09T07:18:46.749Z,31.84
2018-05-09T07:19:47.323Z,31.84
2018-05-09T07:20:47.896Z,31.95
2018-05-09T07:21:48.523Z,31.73
2018-05-09T07:22:49.098Z,31.55
2018-05-09T07:23:49.679Z,31.36
2018-05-09T07:24:50.256Z,31.43
2018-05-09T07:25:50.827Z,31.25
2018-05-09T07:26:51.405Z,30.94
2018-05-09T07:27:52.042Z,31.03
2018-05-09T07:28:52.583Z,30.86
2018-05-09T07:29:53.164Z,30.83
2018-05-09T07:30:53.735Z,30.66
2018-05-09T07:31:54.311Z,30.66
2018-05-09T07:32:54.898Z,30.64
2018-05-09T07:33:55.470Z,30.76
2018-05-09T07:34:56.041Z,30.66
2018-05-09T07:35:56.623Z,30.51
2018-05-09T07:36:57.201Z,30.59
2018-05-09T07:37:57.785Z,30.99
2018-05-09T07:38:58.369Z,31.10
2018-05-09T07:39:58.949Z,31.21
2018-05-09T07:40:59.545Z,31.31
2018-05-09T07:42:00.143Z,31.82
2018-05-09T07:43:00.727Z,32.10
2018-05-09T07:44:01.308Z,32.32
2018-05-09T07:45:01.893Z,32.67
2018-05-09T07:46:02.467Z,32.63
2018-05-09T07:47:03.054Z,32.47
2018-05-09T07:48:03.639Z,32.44
2018-05-09T07:49:04.215Z,32.62
2018-05-09T07:50:04.796Z,32.49
2018-05-09T07:51:05.368Z,32.66
2018-05-09T07:52:05.956Z,32.24
2018-05-09T07:53:06.544Z,31.46
2018-05-09T07:54:07.132Z,31.28
2018-05-09T07:55:07.948Z,30.97
2018-05-09T07:56:08.521Z,30.43
2018-05-09T07:57:09.110Z,30.21
2018-05-09T07:58:11.113Z,30.21
2018-05-09T07:59:11.697Z,30.01
2018-05-09T08:00:12.288Z,29.89
2018-05-09T08:01:12.873Z,29.69
2018-05-09T08:02:13.457Z,29.67
2018-05-09T08:03:14.047Z,29.81
2018-05-09T08:04:14.643Z,29.89
2018-05-09T08:05:15.230Z,30.21
2018-05-09T08:06:15.825Z,30.47
2018-05-09T08:07:16.414Z,30.83
2018-05-09T08:08:17.000Z,30.73
2018-05-09T08:09:17.570Z,30.97
2018-05-09T08:10:18.164Z,31.45
2018-05-09T08:11:18.998Z,31.85
2018-05-09T08:12:20.193Z,31.95
2018-05-09T08:13:20.787Z,31.87
2018-05-09T08:14:21.383Z,31.99
2018-05-09T08:15:21.958Z,31.99
2018-05-09T08:16:22.550Z,31.90
2018-05-09T08:17:23.138Z,31.93
2018-05-09T08:18:23.729Z,31.69
2018-05-09T08:19:24.322Z,32.00
2018-05-09T08:20:24.917Z,32.32
2018-05-09T08:21:25.501Z,32.27
2018-05-09T08:22:26.100Z,32.34
2018-05-09T08:23:26.673Z,32.49
2018-05-09T08:24:27.268Z,32.67
2018-05-09T08:25:27.870Z,32.56
2018-05-09T08:26:28.458Z,32.52
2018-05-09T08:27:29.047Z,32.66
2018-05-09T08:28:29.637Z,32.91
2018-05-09T08:29:30.226Z,33.00
2018-05-09T08:30:30.809Z,32.89
2018-05-09T08:31:31.400Z,32.92
2018-05-09T08:32:31.976Z,33.00
2018-05-09T08:33:32.569Z,32.83
2018-05-09T08:34:33.157Z,32.86
2018-05-09T08:35:33.748Z,32.81
2018-05-09T08:36:34.358Z,32.47
2018-05-09T08:37:34.940Z,32.44
2018-05-09T08:38:35.537Z,32.37
2018-05-09T08:39:36.126Z,32.19
2018-05-09T08:40:36.704Z,32.24
2018-05-09T08:41:37.425Z,32.47
2018-05-09T08:42:38.001Z,32.74
2018-05-09T08:43:38.695Z,32.98
2018-05-09T08:44:39.172Z,33.04
2018-05-09T08:45:39.754Z,32.92
2018-05-09T08:46:40.342Z,33.11
2018-05-09T08:47:41.057Z,33.26
2018-05-09T08:48:41.629Z,33.07
2018-05-09T08:49:42.219Z,33.07
2018-05-09T08:50:42.814Z,32.95
2018-05-09T08:51:43.393Z,32.63
2018-05-09T08:52:43.988Z,32.59
2018-05-09T08:53:44.567Z,32.81
2018-05-09T08:54:45.374Z,32.93
2018-05-09T08:55:45.965Z,33.31
2018-05-09T08:56:46.551Z,33.23
2018-05-09T08:57:47.134Z,33.28
2018-05-09T08:58:47.726Z,33.49
2018-05-09T08:59:48.323Z,33.64
2018-05-09T09:00:48.908Z,33.70
2018-05-09T09:01:49.498Z,33.85
2018-05-09T09:02:50.084Z,33.76
2018-05-09T09:03:50.669Z,33.76
2018-05-09T09:04:51.264Z,33.93
2018-05-09T09:05:51.856Z,33.76
2018-05-09T09:06:52.425Z,33.50
2018-05-09T09:07:53.017Z,33.53
2018-05-09T09:08:53.596Z,33.49
2018-05-09T09:09:54.172Z,33.72
2018-05-09T09:10:54.807Z,33.95
2018-05-09T09:11:55.359Z,33.92
2018-05-09T09:12:55.929Z,33.74
2018-05-09T09:13:56.511Z,33.90
2018-05-09T09:14:57.304Z,34.11
2018-05-09T09:15:57.891Z,34.01
2018-05-09T09:16:58.482Z,33.63
2018-05-09T09:17:59.070Z,33.58
2018-05-09T09:18:59.662Z,33.42
2018-05-09T09:20:00.253Z,33.33
2018-05-09T09:21:00.957Z,33.48
2018-05-09T09:22:01.761Z,33.48
2018-05-09T09:23:02.344Z,33.42
2018-05-09T09:24:02.932Z,33.26
2018-05-09T09:25:03.513Z,32.76
2018-05-09T09:26:04.091Z,32.49
2018-05-09T09:27:04.679Z,32.44
2018-05-09T09:28:05.262Z,32.39
2018-05-09T09:29:05.871Z,32.32
2018-05-09T09:30:06.442Z,31.87
2018-05-09T09:31:07.020Z,31.68
2018-05-09T09:32:07.594Z,31.93
2018-05-09T09:33:08.170Z,32.05
2018-05-09T09:34:08.766Z,32.27
2018-05-09T09:35:09.332Z,32.18
2018-05-09T09:36:09.971Z,32.33
2018-05-09T09:37:10.504Z,32.34
2018-05-09T09:38:11.334Z,32.29
2018-05-09T09:39:11.904Z,32.06
2018-05-09T09:40:12.486Z,32.06
2018-05-09T09:41:13.058Z,32.05
2018-05-09T09:42:13.638Z,31.90
2018-05-09T09:43:14.208Z,32.03
2018-05-09T09:44:14.793Z,32.03
2018-05-09T09:45:15.385Z,31.84
2018-05-09T09:46:15.965Z,31.79
2018-05-09T09:47:16.537Z,31.79
2018-05-09T09:48:17.118Z,31.61
2018-05-09T09:49:17.705Z,31.62
2018-05-09T09:50:18.489Z,31.49
2018-05-09T09:51:19.076Z,31.40
2018-05-09T09:52:19.658Z,31.34
2018-05-09T09:53:20.227Z,31.49
2018-05-09T09:54:20.820Z,31.67
2018-05-09T09:55:21.402Z,31.74
2018-05-09T09:56:21.980Z,31.80
2018-05-09T09:57:22.549Z,31.57
2018-05-09T09:58:23.133Z,31.79
2018-05-09T09:59:23.714Z,31.52
2018-05-09T10:00:24.310Z,31.21
2018-05-09T10:01:24.887Z,31.12
2018-05-09T10:02:25.455Z,31.25
2018-05-09T10:03:26.042Z,30.99
2018-05-09T10:04:26.630Z,31.27
2018-05-09T10:05:27.203Z,31.45
2018-05-09T10:06:27.780Z,31.62
2018-05-09T10:07:28.366Z,31.64
2018-05-09T10:08:28.950Z,31.74
2018-05-09T10:09:29.729Z,31.82
2018-05-09T10:10:30.526Z,31.54
2018-05-09T10:11:31.111Z,31.47
2018-05-09T10:12:31.706Z,31.69
2018-05-09T10:13:32.295Z,31.85
2018-05-09T10:14:32.867Z,32.07
2018-05-09T10:15:33.446Z,32.00
2018-05-09T10:16:34.032Z,32.17
2018-05-09T10:17:34.612Z,32.10
2018-05-09T10:18:35.198Z,32.00
2018-05-09T10:19:35.784Z,32.12
2018-05-09T10:20:36.373Z,32.22
2018-05-09T10:21:36.963Z,32.11
2018-05-09T10:22:37.541Z,32.30
2018-05-09T10:23:38.126Z,32.44
2018-05-09T10:24:38.720Z,32.55
2018-05-09T10:25:39.309Z,32.62
2018-05-09T10:26:39.902Z,32.85
2018-05-09T10:27:40.491Z,32.89
2018-05-09T10:28:41.065Z,32.80
2018-05-09T10:29:41.648Z,32.99
2018-05-09T10:30:42.229Z,33.23
2018-05-09T10:31:42.814Z,33.11
2018-05-09T10:32:43.406Z,33.30
2018-05-09T10:33:43.996Z,32.93
2018-05-09T10:34:44.580Z,32.78
2018-05-09T10:35:45.171Z,32.89
2018-05-09T10:36:45.766Z,32.73
2018-05-09T10:37:46.356Z,32.54
2018-05-09T10:38:46.942Z,32.73
2018-05-09T10:39:47.780Z,32.85
2018-05-09T10:40:48.323Z,32.93
2018-05-09T10:41:48.910Z,33.07
2018-05-09T10:42:49.502Z,33.20
2018-05-09T10:43:50.093Z,33.37
2018-05-09T10:44:50.670Z,33.45
2018-05-09T10:45:51.299Z,33.37
2018-05-09T10:46:51.876Z,33.28
2018-05-09T10:47:52.660Z,33.37
2018-05-09T10:48:53.236Z,33.36
2018-05-09T10:49:54.021Z,33.45
2018-05-09T10:50:54.959Z,33.20
2018-05-09T10:51:55.546Z,33.26
2018-05-09T10:52:56.119Z,33.38
2018-05-09T10:53:56.702Z,33.38
2018-05-09T10:54:57.283Z,33.42
2018-05-09T10:55:57.855Z,33.50
2018-05-09T10:56:58.437Z,33.58
2018-05-09T10:57:59.030Z,33.83
2018-05-09T10:58:59.620Z,33.95
2018-05-09T11:00:00.210Z,33.99
2018-05-09T11:01:00.800Z,34.23
2018-05-09T11:02:01.374Z,34.50
2018-05-09T11:03:01.964Z,34.70
2018-05-09T11:04:02.552Z,34.70
2018-05-09T11:05:03.167Z,34.58
2018-05-09T11:06:03.740Z,34.67
2018-05-09T11:07:04.335Z,35.05
2018-05-09T11:08:04.914Z,34.58
2018-05-09T11:09:05.552Z,34.20
2018-05-09T11:10:06.080Z,34.61
2018-05-09T11:11:06.861Z,34.63
2018-05-09T11:12:07.430Z,34.79
2018-05-09T11:13:08.003Z,34.99
2018-05-09T11:14:08.577Z,34.96
2018-05-09T11:15:09.155Z,34.50
2018-05-09T11:16:09.737Z,34.60
2018-05-09T11:17:10.310Z,34.88
2018-05-09T11:18:10.887Z,35.01
2018-05-09T11:19:11.462Z,34.84
2018-05-09T11:20:12.046Z,34.83
2018-05-09T11:21:12.631Z,34.98
2018-05-09T11:22:13.212Z,35.15
2018-05-09T11:23:13.788Z,35.11
2018-05-09T11:24:14.366Z,35.23
2018-05-09T11:25:14.949Z,35.48
2018-05-09T11:26:15.537Z,35.66
2018-05-09T11:27:16.117Z,35.23
2018-05-09T11:28:16.700Z,35.05
2018-05-09T11:29:17.268Z,34.73
2018-05-09T11:30:17.843Z,34.51
2018-05-09T11:31:18.420Z,34.41
2018-05-09T11:32:18.979Z,34.60
2018-05-09T11:33:19.551Z,34.79
2018-05-09T11:34:20.203Z,34.89
2018-05-09T11:35:20.708Z,35.07
2018-05-09T11:36:21.300Z,35.10
2018-05-09T11:37:21.952Z,35.07
2018-05-09T11:38:22.672Z,34.91
2018-05-09T11:39:23.252Z,34.46
2018-05-09T11:40:23.839Z,34.29
2018-05-09T11:41:24.425Z,34.11
2018-05-09T11:42:25.021Z,34.13
2018-05-09T11:43:25.590Z,34.09
2018-05-09T11:44:26.374Z,33.74
2018-05-09T11:45:26.947Z,33.64
2018-05-09T11:46:27.529Z,33.72
2018-05-09T11:47:28.125Z,33.85
2018-05-09T11:48:28.712Z,34.11
2018-05-09T11:49:29.280Z,34.20
2018-05-09T11:50:29.855Z,34.29
2018-05-09T11:51:30.431Z,34.21
2018-05-09T11:52:31.010Z,34.01
2018-05-09T11:53:31.581Z,34.04
2018-05-09T11:54:32.154Z,34.01
2018-05-09T11:55:32.732Z,33.97
2018-05-09T11:56:33.306Z,34.07
2018-05-09T11:57:33.885Z,34.30
2018-05-09T11:58:34.461Z,34.19
2018-05-09T11:59:35.036Z,34.24
2018-05-09T12:00:35.614Z,34.35
2018-05-09T12:01:36.191Z,34.51
2018-05-09T12:02:36.814Z,35.20
2018-05-09T12:03:37.337Z,35.39
2018-05-09T12:04:37.907Z,35.21
2018-05-09T12:05:38.481Z,35.01
2018-05-09T12:06:39.056Z,35.29
2018-05-09T12:07:39.634Z,35.59
2018-05-09T12:08:40.220Z,35.79
2018-05-09T12:09:40.790Z,36.12
2018-05-09T12:10:41.464Z,36.36
2018-05-09T12:11:41.936Z,36.73
2018-05-09T12:12:42.519Z,36.91
2018-05-09T12:13:43.108Z,36.98
2018-05-09T12:14:43.697Z,36.70
2018-05-09T12:15:44.288Z,36.68
2018-05-09T12:16:44.876Z,36.95
2018-05-09T12:17:45.465Z,36.03
2018-05-09T12:18:46.038Z,36.12
2018-05-09T12:19:46.622Z,36.01
2018-05-09T12:20:47.200Z,36.41
2018-05-09T12:21:47.781Z,36.11
2018-05-09T12:22:48.352Z,36.38
2018-05-09T12:23:48.941Z,36.34
2018-05-09T12:24:49.503Z,36.50
2018-05-09T12:25:50.090Z,36.52
2018-05-09T12:26:50.665Z,36.49
2018-05-09T12:27:51.241Z,36.75
2018-05-09T12:28:51.812Z,36.80
2018-05-09T12:32:23.310Z,37.07
2018-05-09T12:33:23.897Z,37.26
2018-05-09T12:34:24.490Z,37.41
2018-05-09T12:35:25.068Z,37.29
2018-05-09T12:36:25.649Z,37.26
2018-05-09T12:37:26.230Z,37.19
2018-05-09T12:38:26.832Z,37.08
2018-05-09T12:39:27.459Z,36.77
2018-05-09T12:40:28.050Z,36.63
2018-05-09T12:41:28.652Z,36.58
2018-05-09T12:42:29.268Z,36.83
2018-05-09T12:43:29.793Z,37.19
2018-05-09T12:44:30.374Z,36.99
2018-05-09T12:45:30.952Z,36.79
2018-05-09T12:46:31.543Z,37.05
2018-05-09T12:47:32.102Z,37.13
2018-05-09T12:48:32.710Z,37.08
2018-05-09T12:49:33.261Z,37.26
2018-05-09T12:50:33.852Z,37.41
2018-05-09T12:51:34.416Z,36.87
2018-05-09T12:52:34.990Z,36.54
2018-05-09T12:53:35.580Z,36.15
2018-05-09T12:54:36.164Z,35.77
2018-05-09T12:55:36.731Z,36.04
2018-05-09T12:56:37.330Z,36.33
2018-05-09T12:57:37.907Z,36.52
2018-05-09T12:58:38.478Z,36.85
2018-05-09T12:59:39.047Z,36.77
2018-05-09T13:00:39.616Z,36.77
2018-05-09T13:01:40.185Z,36.36
2018-05-09T13:02:40.773Z,36.15